createdAt,value
2022-09-10T00:01:32.352Z,18.50
2022-09-10T00:04:01.550Z,24.93
2022-09-10T00:06:33.039Z,11.87
2022-09-10T00:09:01.649Z,22.17
2022-09-10T00:11:32.366Z,21.77
2022-09-10T00:14:09.436Z,17.33
2022-09-10T00:16:36.338Z,22.67
2022-09-10T00:19:03.680Z,23.47
2022-09-10T00:21:30.822Z,17.90
2022-09-10T00:23:58.422Z,20.20
2022-09-10T00:26:28.206Z,26.60
2022-09-10T00:28:58.935Z,20.20
2022-09-10T00:31:26.487Z,18.87
2022-09-10T00:33:54.871Z,24.87
2022-09-10T00:36:25.578Z,19.67
2022-09-10T00:38:55.368Z,25.05
2022-09-10T00:41:24.855Z,21.73
2022-09-10T00:44:05.965Z,27.50
2022-09-10T00:46:48.657Z,25.07
2022-09-10T00:49:31.404Z,20.03
2022-09-10T00:51:59.152Z,18.70
2022-09-10T00:54:28.267Z,21.50
2022-09-10T00:57:00.334Z,20.30
2022-09-10T00:59:28.081Z,23.97
2022-09-10T01:01:56.025Z,28.20
2022-09-10T01:04:23.291Z,17.70
2022-09-10T01:06:53.289Z,17.00
2022-09-10T01:09:22.426Z,20.23
2022-09-10T01:12:08.069Z,18.30
2022-09-10T01:15:01.489Z,20.67
2022-09-10T01:17:46.960Z,22.97
2022-09-10T01:20:47.149Z,22.17
2022-09-10T01:23:19.435Z,20.63
2022-09-10T01:26:19.302Z,20.10
2022-09-10T01:29:10.804Z,23.53
2022-09-10T01:31:49.386Z,22.63
2022-09-10T01:34:29.773Z,17.07
2022-09-10T01:37:05.453Z,18.77
2022-09-10T01:39:34.126Z,18.00
2022-09-10T01:42:01.259Z,17.60
2022-09-10T01:44:48.315Z,20.90
2022-09-10T01:47:38.101Z,23.37
2022-09-10T01:50:46.207Z,19.77
2022-09-10T01:53:47.231Z,18.00
2022-09-10T01:57:10.838Z,21.37
2022-09-10T02:00:09.615Z,18.20
2022-09-10T02:03:01.950Z,23.03
2022-09-10T02:05:31.868Z,18.65
2022-09-10T02:08:20.222Z,21.77
2022-09-10T02:11:06.275Z,16.03
2022-09-10T02:13:34.638Z,18.30
2022-09-10T02:16:03.957Z,19.90
2022-09-10T02:18:35.424Z,17.13
2022-09-10T02:21:03.203Z,15.23
2022-09-10T02:24:05.844Z,25.17
2022-09-10T02:26:39.644Z,12.50
2022-09-10T02:29:07.265Z,17.83
2022-09-10T02:31:34.472Z,19.10
2022-09-10T02:34:03.320Z,18.87
2022-09-10T02:36:31.906Z,21.87
2022-09-10T02:39:00.419Z,19.80
2022-09-10T02:41:27.618Z,15.77
2022-09-10T02:43:55.463Z,25.60
2022-09-10T02:46:23.207Z,14.60
2022-09-10T02:48:50.252Z,17.03
2022-09-10T02:51:17.273Z,24.50
2022-09-10T02:53:44.445Z,14.65
2022-09-10T02:56:12.405Z,19.23
2022-09-10T02:58:39.502Z,16.97
2022-09-10T03:01:09.898Z,19.17
2022-09-10T03:03:37.556Z,16.63
2022-09-10T03:06:05.408Z,22.20
2022-09-10T03:08:32.662Z,23.27
2022-09-10T03:10:59.853Z,26.17
2022-09-10T03:13:28.639Z,23.13
2022-09-10T03:15:56.478Z,19.70
2022-09-10T03:18:23.537Z,18.40
2022-09-10T03:20:51.692Z,24.42
2022-09-10T03:23:18.962Z,23.43
2022-09-10T03:25:49.635Z,24.55
2022-09-10T03:28:16.914Z,19.27
2022-09-10T03:30:43.860Z,19.15
2022-09-10T03:33:11.831Z,22.43
2022-09-10T03:35:38.841Z,18.17
2022-09-10T03:38:05.890Z,23.57
2022-09-10T03:40:34.109Z,20.50
2022-09-10T03:43:01.231Z,18.80
2022-09-10T03:45:28.668Z,22.73
2022-09-10T03:47:55.613Z,19.63
2022-09-10T03:50:22.563Z,18.30
2022-09-10T03:52:50.109Z,24.23
2022-09-10T03:55:17.956Z,25.17
2022-09-10T03:57:45.720Z,22.87
2022-09-10T04:00:12.952Z,19.02
2022-09-10T04:02:41.675Z,16.67
2022-09-10T04:05:09.947Z,30.10
2022-09-10T04:07:36.898Z,25.07
2022-09-10T04:10:04.528Z,28.27
2022-09-10T04:12:31.445Z,25.33
2022-09-10T04:14:58.367Z,27.97
2022-09-10T04:17:25.400Z,28.73
2022-09-10T04:19:52.433Z,26.97
2022-09-10T04:22:19.339Z,25.90
2022-09-10T04:24:46.216Z,28.43
2022-09-10T04:27:13.797Z,32.27
2022-09-10T04:29:40.994Z,29.13
2022-09-10T04:32:07.969Z,30.10
2022-09-10T04:34:34.948Z,29.83
2022-09-10T04:37:01.851Z,33.70
2022-09-10T04:39:28.736Z,33.23
2022-09-10T04:41:55.585Z,35.95
2022-09-10T04:44:22.505Z,35.77
2022-09-10T04:46:49.379Z,33.93
2022-09-10T04:49:16.253Z,28.13
2022-09-10T04:51:43.172Z,28.75
2022-09-10T04:54:14.360Z,28.07
2022-09-10T04:56:41.566Z,34.07
2022-09-10T04:59:08.446Z,40.43
2022-09-10T05:01:35.329Z,37.90
2022-09-10T05:04:03.529Z,38.20
2022-09-10T05:06:30.407Z,37.27
2022-09-10T05:08:57.428Z,39.60
2022-09-10T05:11:25.372Z,36.93
2022-09-10T05:13:52.247Z,40.10
2022-09-10T05:16:19.147Z,40.43
2022-09-10T05:18:46.080Z,36.83
2022-09-10T05:21:12.998Z,35.27
2022-09-10T05:23:40.160Z,36.70
2022-09-10T05:26:07.129Z,40.17
2022-09-10T05:28:34.061Z,38.07
2022-09-10T05:31:01.115Z,32.67
2022-09-10T05:33:28.113Z,37.30
2022-09-10T05:35:54.989Z,41.83
2022-09-10T05:38:24.003Z,43.47
2022-09-10T05:40:50.942Z,44.90
2022-09-10T05:43:17.976Z,44.47
2022-09-10T05:45:44.889Z,48.30
2022-09-10T05:48:11.966Z,36.93
2022-09-10T05:50:39.015Z,37.97
2022-09-10T05:53:06.343Z,39.53
2022-09-10T05:55:33.371Z,40.50
2022-09-10T05:58:00.345Z,42.60
2022-09-10T06:00:27.309Z,40.43
2022-09-10T06:02:54.433Z,40.33
2022-09-10T06:05:23.220Z,39.60
2022-09-10T06:07:50.667Z,45.20
2022-09-10T06:10:17.598Z,41.67
2022-09-10T06:12:49.702Z,42.70
2022-09-10T06:15:16.672Z,33.43
2022-09-10T06:17:43.639Z,38.83
2022-09-10T06:20:12.694Z,37.87
2022-09-10T06:22:42.635Z,35.20
2022-09-10T06:25:09.761Z,36.53
2022-09-10T06:27:36.634Z,41.25
2022-09-10T06:30:04.128Z,39.38
2022-09-10T06:32:32.319Z,41.78
2022-09-10T06:34:59.208Z,47.22
2022-09-10T06:37:27.007Z,42.07
2022-09-10T06:39:53.927Z,44.43
2022-09-10T06:42:20.833Z,37.97
2022-09-10T06:44:47.744Z,41.60
2022-09-10T06:50:01.562Z,43.37
2022-09-10T06:52:31.475Z,39.42
2022-09-10T06:54:59.250Z,44.05
2022-09-10T06:57:26.551Z,39.25
2022-09-10T06:59:53.453Z,40.00
2022-09-10T07:02:20.527Z,47.25
2022-09-10T07:04:47.434Z,41.70
2022-09-10T07:07:15.076Z,38.42
2022-09-10T07:09:42.061Z,39.65
2022-09-10T07:12:09.466Z,36.47
2022-09-10T07:14:36.356Z,41.85
2022-09-10T07:17:03.289Z,37.42
2022-09-10T07:19:30.975Z,38.65
2022-09-10T07:21:57.953Z,37.90
2022-09-10T07:24:24.852Z,39.72
2022-09-10T07:26:51.743Z,31.60
2022-09-10T07:29:18.611Z,31.55
2022-09-10T07:31:47.291Z,33.38
2022-09-10T07:34:14.268Z,38.95
2022-09-10T07:36:41.141Z,37.90
2022-09-10T07:39:09.169Z,35.05
2022-09-10T07:41:36.318Z,36.33
2022-09-10T07:44:03.722Z,33.65
2022-09-10T07:46:30.619Z,37.50
2022-09-10T07:49:01.055Z,31.40
2022-09-10T07:51:32.422Z,37.17
2022-09-10T07:53:59.816Z,35.70
2022-09-10T07:56:27.254Z,31.48
2022-09-10T07:58:57.423Z,34.15
2022-09-10T08:01:24.712Z,37.63
2022-09-10T08:03:51.720Z,37.92
2022-09-10T08:06:19.599Z,28.05
2022-09-10T08:08:46.479Z,30.80
2022-09-10T08:11:17.447Z,30.67
2022-09-10T08:13:48.036Z,35.80
2022-09-10T08:16:19.280Z,30.65
2022-09-10T08:18:47.922Z,30.55
2022-09-10T08:21:16.324Z,35.17
2022-09-10T08:23:48.767Z,32.60
2022-09-10T08:26:15.712Z,33.53
2022-09-10T08:28:44.268Z,30.38
2022-09-10T08:31:12.793Z,34.67
2022-09-10T08:33:40.710Z,28.63
2022-09-10T08:36:11.977Z,32.15
2022-09-10T08:38:40.555Z,29.05
2022-09-10T08:41:43.884Z,28.63
2022-09-10T08:44:42.758Z,27.33
2022-09-10T08:47:33.357Z,25.33
2022-09-10T08:50:13.224Z,24.05
2022-09-10T08:52:50.593Z,27.17
2022-09-10T08:55:17.393Z,26.05
2022-09-10T08:58:00.049Z,21.15
2022-09-10T09:00:34.143Z,27.38
2022-09-10T09:03:31.851Z,24.42
2022-09-10T09:06:02.677Z,27.40
2022-09-10T09:08:44.230Z,20.58
2022-09-10T09:11:45.166Z,29.55
2022-09-10T09:14:49.251Z,29.73
2022-09-10T09:17:49.354Z,26.00
2022-09-10T09:20:41.512Z,27.83
2022-09-10T09:23:30.094Z,23.77
2022-09-10T09:26:04.791Z,29.00
2022-09-10T09:28:43.493Z,19.88
2022-09-10T09:31:31.452Z,20.92
2022-09-10T09:34:19.247Z,16.88
2022-09-10T09:36:55.305Z,14.82
2022-09-10T09:39:42.023Z,17.13
2022-09-10T09:42:24.686Z,19.13
2022-09-10T09:45:21.077Z,12.07
2022-09-10T09:47:50.205Z,18.88
2022-09-10T09:50:20.589Z,13.88
2022-09-10T09:52:54.229Z,12.18
2022-09-10T09:55:24.886Z,14.15
2022-09-10T09:58:33.495Z,14.32
2022-09-10T10:01:07.138Z,17.45
2022-09-10T10:03:48.796Z,19.02
2022-09-10T10:06:17.288Z,20.05
2022-09-10T10:08:53.058Z,19.38
2022-09-10T10:11:22.248Z,16.90
2022-09-10T10:13:51.651Z,21.35
2022-09-10T10:16:28.483Z,19.80
2022-09-10T10:18:55.349Z,23.23
2022-09-10T10:21:31.986Z,18.35
2022-09-10T10:23:59.239Z,17.08
2022-09-10T10:26:35.135Z,17.45
2022-09-10T10:29:17.355Z,17.20
2022-09-10T10:31:47.370Z,20.58
2022-09-10T10:34:16.888Z,23.38
2022-09-10T10:37:00.742Z,23.90
2022-09-10T10:39:57.082Z,24.35
2022-09-10T10:42:35.758Z,24.30
2022-09-10T10:45:20.848Z,17.77
2022-09-10T10:48:04.613Z,20.27
2022-09-10T10:50:44.483Z,17.13
2022-09-10T10:53:47.097Z,15.25
2022-09-10T10:57:00.095Z,17.27
2022-09-10T10:59:44.974Z,11.95
2022-09-10T11:02:54.510Z,6.65
2022-09-10T11:05:41.510Z,13.98
2022-09-10T11:08:15.090Z,16.27
2022-09-10T11:11:09.039Z,8.20
2022-09-10T11:13:57.657Z,7.55
2022-09-10T11:16:41.649Z,8.73
2022-09-10T11:19:35.583Z,6.63
2022-09-10T11:22:14.027Z,8.52
2022-09-10T11:25:03.021Z,8.05
2022-09-10T11:27:43.348Z,7.85
2022-09-10T11:30:16.263Z,8.65
2022-09-10T11:33:15.222Z,7.30
2022-09-10T11:36:00.049Z,6.72
2022-09-10T11:38:36.870Z,9.40
2022-09-10T11:41:09.506Z,8.60
2022-09-10T11:44:30.091Z,7.60
2022-09-10T11:47:11.657Z,10.30
2022-09-10T11:50:07.412Z,8.30
2022-09-10T11:52:35.280Z,6.70
2022-09-10T11:55:04.731Z,7.07
2022-09-10T11:57:59.616Z,5.80
2022-09-10T12:00:30.194Z,6.53
2022-09-10T12:02:59.926Z,9.68
2022-09-10T12:05:49.146Z,8.35
2022-09-10T12:08:49.744Z,7.85
2022-09-10T12:11:41.630Z,10.80
2022-09-10T12:14:17.057Z,8.95
2022-09-10T12:16:55.331Z,6.45
2022-09-10T12:19:56.299Z,6.03
2022-09-10T12:22:40.274Z,7.32
2022-09-10T12:25:24.803Z,8.48
2022-09-10T12:27:56.166Z,6.30
2022-09-10T12:30:29.265Z,6.90
2022-09-10T12:33:00.481Z,9.70
2022-09-10T12:35:34.280Z,10.93
2022-09-10T12:38:44.382Z,4.88
2022-09-10T12:41:31.453Z,11.35
2022-09-10T12:44:00.610Z,4.68
2022-09-10T12:46:28.941Z,6.72
2022-09-10T12:48:56.019Z,4.93
2022-09-10T12:51:58.344Z,6.63
2022-09-10T12:54:53.965Z,9.10
2022-09-10T12:58:02.605Z,9.95
2022-09-10T13:00:53.849Z,7.28
2022-09-10T13:03:24.571Z,6.45
2022-09-10T13:05:58.208Z,7.75
2022-09-10T13:08:43.414Z,6.55
2022-09-10T13:11:21.607Z,8.48
2022-09-10T13:13:56.404Z,6.88
2022-09-10T13:16:26.485Z,7.10
2022-09-10T13:19:22.666Z,7.07
2022-09-10T13:21:51.583Z,5.10
2022-09-10T13:24:34.257Z,6.95
2022-09-10T13:27:21.559Z,8.18
2022-09-10T13:30:10.748Z,6.80
2022-09-10T13:32:44.323Z,10.68
2022-09-10T13:35:38.539Z,4.97
2022-09-10T13:39:00.932Z,7.80
2022-09-10T13:41:50.628Z,8.32
2022-09-10T13:44:48.471Z,6.93
2022-09-10T13:47:34.298Z,7.97
2022-09-10T13:50:14.144Z,8.07
2022-09-10T13:52:45.614Z,7.30
2022-09-10T13:55:24.863Z,7.28
2022-09-10T13:57:56.530Z,8.13
2022-09-10T14:00:28.356Z,6.50
2022-09-10T14:03:00.757Z,10.20
2022-09-10T14:05:47.035Z,13.15
2022-09-10T14:08:22.668Z,10.75
2022-09-10T14:11:17.643Z,11.15
2022-09-10T14:14:04.246Z,13.73
2022-09-10T14:16:44.337Z,12.43
2022-09-10T14:19:23.865Z,12.07
2022-09-10T14:21:51.786Z,12.32
2022-09-10T14:24:53.560Z,14.40
2022-09-10T14:27:41.329Z,13.90
2022-09-10T14:30:23.124Z,13.93
2022-09-10T14:32:51.866Z,14.30
2022-09-10T14:35:38.242Z,11.98
2022-09-10T14:38:25.409Z,13.57
2022-09-10T14:41:10.945Z,15.48
2022-09-10T14:43:40.476Z,14.32
2022-09-10T14:46:10.333Z,17.25
2022-09-10T14:49:04.649Z,12.85
2022-09-10T14:51:31.535Z,18.40
2022-09-10T14:53:59.139Z,14.68
2022-09-10T14:56:33.531Z,18.77
2022-09-10T14:59:18.613Z,15.25
2022-09-10T15:01:48.424Z,13.43
2022-09-10T15:04:18.484Z,17.30
2022-09-10T15:06:45.511Z,16.40
2022-09-10T15:09:14.066Z,14.93
2022-09-10T15:12:05.849Z,14.07
2022-09-10T15:14:33.962Z,9.77
2022-09-10T15:17:01.138Z,14.02
2022-09-10T15:19:28.369Z,9.65
2022-09-10T15:21:56.381Z,14.90
2022-09-10T15:24:24.665Z,11.60
2022-09-10T15:26:51.684Z,13.55
2022-09-10T15:29:18.542Z,13.75
2022-09-10T15:31:45.596Z,10.50
2022-09-10T15:34:12.968Z,15.45
2022-09-10T15:36:41.499Z,12.30
2022-09-10T15:39:13.559Z,12.75
2022-09-10T15:41:44.751Z,9.10
2022-09-10T15:44:12.109Z,11.23
2022-09-10T15:46:45.545Z,12.85
2022-09-10T15:49:12.945Z,10.82
2022-09-10T15:51:41.321Z,11.07
2022-09-10T15:54:13.440Z,12.90
2022-09-10T15:56:40.435Z,14.02
2022-09-10T15:59:08.780Z,9.55
2022-09-10T16:01:38.400Z,10.45
2022-09-10T16:04:06.107Z,11.45
2022-09-10T16:06:36.788Z,10.80
2022-09-10T16:09:09.282Z,8.43
2022-09-10T16:11:38.619Z,12.00
2022-09-10T16:14:08.260Z,10.65
2022-09-10T16:16:37.132Z,8.65
2022-09-10T16:19:05.825Z,9.05
2022-09-10T16:21:36.553Z,8.02
2022-09-10T16:24:05.698Z,13.05
2022-09-10T16:26:39.923Z,7.53
2022-09-10T16:29:14.097Z,9.80
2022-09-10T16:31:41.672Z,12.43
2022-09-10T16:34:16.056Z,10.85
2022-09-10T16:36:43.837Z,9.15
2022-09-10T16:39:15.589Z,8.20
2022-09-10T16:41:45.289Z,9.15
2022-09-10T16:44:14.774Z,10.10
2022-09-10T16:46:42.573Z,10.27
2022-09-10T16:49:14.348Z,7.75
2022-09-10T16:51:46.871Z,9.25
2022-09-10T16:54:15.876Z,10.82
2022-09-10T16:56:45.755Z,9.55
2022-09-10T16:59:19.689Z,13.73
2022-09-10T17:01:48.427Z,10.57
2022-09-10T17:04:26.065Z,11.43
2022-09-10T17:06:56.125Z,14.70
2022-09-10T17:09:23.088Z,12.02
2022-09-10T17:11:51.098Z,10.43
2022-09-10T17:14:17.974Z,10.13
2022-09-10T17:16:44.922Z,10.95
2022-09-10T17:19:17.563Z,8.40
2022-09-10T17:21:48.887Z,13.15
2022-09-10T17:24:15.770Z,7.32
2022-09-10T17:26:42.736Z,11.18
2022-09-10T17:29:22.556Z,10.48
2022-09-10T17:31:52.165Z,13.20
2022-09-10T17:34:24.393Z,8.90
2022-09-10T17:36:52.310Z,12.70
2022-09-10T17:39:19.551Z,12.25
2022-09-10T17:41:46.661Z,16.35
2022-09-10T17:44:14.580Z,12.30
2022-09-10T17:46:42.755Z,16.17
2022-09-10T17:49:13.074Z,12.65
2022-09-10T17:51:40.243Z,15.35
2022-09-10T17:54:08.346Z,16.80
2022-09-10T17:56:36.609Z,12.63
2022-09-10T17:59:05.168Z,14.30
2022-09-10T18:01:38.832Z,15.80
2022-09-10T18:04:15.741Z,13.38
2022-09-10T18:06:43.767Z,14.48
2022-09-10T18:09:11.498Z,15.82
2022-09-10T18:11:40.750Z,12.45
2022-09-10T18:14:08.933Z,13.25
2022-09-10T18:16:38.079Z,13.65
2022-09-10T18:19:14.430Z,18.85
2022-09-10T18:21:43.971Z,11.32
2022-09-10T18:24:14.559Z,19.73
2022-09-10T18:26:45.120Z,14.98
2022-09-10T18:29:25.287Z,21.58
2022-09-10T18:31:56.482Z,15.32
2022-09-10T18:34:27.735Z,15.50
2022-09-10T18:37:00.998Z,16.10
2022-09-10T18:39:30.903Z,11.68
2022-09-10T18:42:00.718Z,14.88
2022-09-10T18:44:36.402Z,17.38
2022-09-10T18:47:17.894Z,19.60
2022-09-10T18:49:53.493Z,16.98
2022-09-10T18:52:20.979Z,16.63
2022-09-10T18:54:48.218Z,22.00
2022-09-10T18:57:15.098Z,16.98
2022-09-10T18:59:42.034Z,17.92
2022-09-10T19:02:13.109Z,25.08
2022-09-10T19:05:00.401Z,16.63
2022-09-10T19:07:27.262Z,22.80
2022-09-10T19:09:54.251Z,21.83
2022-09-10T19:12:21.129Z,24.98
2022-09-10T19:14:47.978Z,16.10
2022-09-10T19:17:15.835Z,19.73
2022-09-10T19:19:42.760Z,23.05
2022-09-10T19:22:10.622Z,20.70
2022-09-10T19:24:54.460Z,21.98
2022-09-10T19:27:22.964Z,20.40
2022-09-10T19:29:50.238Z,24.70
2022-09-10T19:32:19.754Z,17.88
2022-09-10T19:34:50.510Z,20.30
2022-09-10T19:37:17.629Z,20.95
2022-09-10T19:39:44.745Z,18.90
2022-09-10T19:42:12.623Z,21.05
2022-09-10T19:44:39.640Z,21.52
2022-09-10T19:47:06.532Z,22.33
2022-09-10T19:49:34.262Z,25.77
2022-09-10T19:52:01.627Z,20.27
2022-09-10T19:54:29.819Z,17.20
2022-09-10T19:56:56.740Z,17.92
2022-09-10T19:59:23.789Z,19.42
2022-09-10T20:01:51.012Z,24.98
2022-09-10T20:04:18.032Z,18.77
2022-09-10T20:06:46.163Z,23.80
2022-09-10T20:09:13.662Z,19.08
2022-09-10T20:11:41.087Z,20.23
2022-09-10T20:14:13.731Z,17.73
2022-09-10T20:16:44.048Z,22.17
2022-09-10T20:19:14.891Z,21.77
2022-09-10T20:21:42.289Z,19.77
2022-09-10T20:24:10.179Z,20.27
2022-09-10T20:26:40.954Z,22.95
2022-09-10T20:29:12.572Z,21.67
2022-09-10T20:31:41.468Z,20.50
2022-09-10T20:34:12.653Z,26.92
2022-09-10T20:36:42.402Z,25.15
2022-09-10T20:39:13.590Z,26.50
2022-09-10T20:41:40.661Z,21.30
2022-09-10T20:44:08.447Z,21.50
2022-09-10T20:46:35.370Z,24.05
2022-09-10T20:49:05.589Z,24.90
2022-09-10T20:51:35.867Z,24.25
2022-09-10T20:54:04.497Z,18.70
2022-09-10T20:56:32.111Z,21.58
2022-09-10T20:58:59.829Z,24.33
2022-09-10T21:01:29.174Z,23.80
2022-09-10T21:03:59.446Z,25.17
2022-09-10T21:06:29.292Z,20.20
2022-09-10T21:08:56.273Z,25.27
2022-09-10T21:11:25.928Z,20.80
2022-09-10T21:13:55.762Z,24.02
2022-09-10T21:16:23.359Z,22.42
2022-09-10T21:18:58.780Z,24.45
2022-09-10T21:21:30.562Z,23.42
2022-09-10T21:24:04.728Z,22.63
2022-09-10T21:26:38.709Z,19.70
2022-09-10T21:29:10.983Z,21.25
2022-09-10T21:31:38.258Z,19.05
2022-09-10T21:34:06.091Z,22.05
2022-09-10T21:36:35.339Z,20.50
2022-09-10T21:39:06.256Z,21.65
2022-09-10T21:41:40.240Z,31.50
2022-09-10T21:44:17.365Z,25.35
2022-09-10T21:46:45.806Z,24.45
2022-09-10T21:49:13.626Z,30.75
2022-09-10T21:51:41.657Z,27.73
2022-09-10T21:54:18.619Z,32.15
2022-09-10T21:56:45.797Z,28.13
2022-09-10T21:59:14.611Z,22.33
2022-09-10T22:01:44.098Z,27.00
2022-09-10T22:04:12.647Z,24.95
2022-09-10T22:06:40.239Z,27.73
2022-09-10T22:09:15.273Z,23.25
2022-09-10T22:11:46.946Z,28.30
2022-09-10T22:14:21.366Z,25.67
2022-09-10T22:16:49.274Z,20.95
2022-09-10T22:19:27.350Z,26.30
2022-09-10T22:21:56.014Z,23.67
2022-09-10T22:24:23.209Z,27.17
2022-09-10T22:26:50.455Z,28.00
2022-09-10T22:29:19.567Z,27.52
2022-09-10T22:31:47.030Z,26.38
2022-09-10T22:34:16.463Z,28.00
2022-09-10T22:36:45.849Z,26.25
2022-09-10T22:39:18.545Z,30.83
2022-09-10T22:41:47.205Z,30.20
2022-09-10T22:44:14.412Z,38.83
2022-09-10T22:46:41.749Z,29.88
2022-09-10T22:49:10.106Z,27.40
2022-09-10T22:51:41.026Z,24.85
2022-09-10T22:54:10.812Z,25.27
2022-09-10T22:56:38.253Z,29.92
2022-09-10T22:59:06.558Z,37.35
2022-09-10T23:01:38.564Z,42.63
2022-09-10T23:04:07.882Z,35.55
2022-09-10T23:06:37.890Z,30.85
2022-09-10T23:09:10.468Z,33.83
2022-09-10T23:11:38.889Z,35.33
2022-09-10T23:14:10.748Z,35.42
2022-09-10T23:16:43.702Z,34.95
2022-09-10T23:19:17.510Z,34.30
2022-09-10T23:21:47.993Z,30.20
2022-09-10T23:24:18.121Z,36.00
2022-09-10T23:26:45.917Z,36.03
2022-09-10T23:29:16.827Z,34.45
2022-09-10T23:31:45.992Z,33.75
2022-09-10T23:34:18.524Z,32.28
2022-09-10T23:36:48.240Z,33.25
2022-09-10T23:39:24.029Z,33.03
2022-09-10T23:41:53.965Z,34.38
2022-09-10T23:44:21.056Z,28.05
2022-09-10T23:46:48.161Z,31.20
2022-09-10T23:49:15.313Z,35.20
2022-09-10T23:51:42.670Z,33.92
2022-09-10T23:54:12.553Z,34.97
2022-09-10T23:56:40.234Z,33.97
2022-09-10T23:59:07.741Z,32.60
